createdAt,value
2023-01-11T01:42:24.016Z,101822.46
2023-01-11T01:45:18.794Z,101827.69
2023-01-11T01:48:19.885Z,101833.46
2023-01-11T01:51:55.777Z,101834.23
2023-01-11T01:54:31.536Z,101841.09
2023-01-11T02:02:10.939Z,101837.96
2023-01-11T02:04:48.057Z,101836.73
2023-01-11T02:07:22.451Z,101833.48
2023-01-11T02:10:12.654Z,101837.03
2023-01-11T02:12:48.227Z,101828.21
2023-01-11T02:15:20.267Z,101820.11
2023-01-11T02:17:49.615Z,101819.65
2023-01-11T02:21:01.271Z,101827.87
2023-01-11T02:24:00.876Z,101831.17
2023-01-11T02:27:26.684Z,101820.45
2023-01-11T02:30:30.960Z,101819.77
2023-01-11T02:33:27.920Z,101819.44
2023-01-11T02:36:28.701Z,101821.79
2023-01-11T02:39:28.087Z,101825.58
2023-01-11T02:42:56.942Z,101824.41
2023-01-11T02:46:01.719Z,101820.63
2023-01-11T02:48:43.481Z,101820.02
2023-01-11T02:51:47.230Z,101833.58
2023-01-11T02:54:20.133Z,101838.89
2023-01-11T02:56:56.616Z,101840.83
2023-01-11T02:59:31.632Z,101839.93
2023-01-11T03:02:04.691Z,101841.27
2023-01-11T03:04:46.297Z,101835.50
2023-01-11T03:07:33.265Z,101835.21
2023-01-11T03:10:34.154Z,101839.00
2023-01-11T03:13:45.184Z,101845.48
2023-01-11T03:16:50.132Z,101842.83
2023-01-11T03:19:37.168Z,101845.73
2023-01-11T03:22:28.938Z,101840.56
2023-01-11T03:25:17.086Z,101840.09
2023-01-11T03:28:06.247Z,101831.50
2023-01-11T03:31:10.622Z,101827.96
2023-01-11T03:33:48.211Z,101829.96
2023-01-11T03:36:27.568Z,101829.65
2023-01-11T03:39:30.748Z,101835.30
2023-01-11T03:42:05.572Z,101835.46
2023-01-11T03:44:44.209Z,101840.85
2023-01-11T03:47:16.262Z,101834.23
2023-01-11T03:49:59.503Z,101838.90
2023-01-11T03:52:41.770Z,101830.48
2023-01-11T03:55:16.609Z,101833.58
2023-01-11T03:57:51.014Z,101834.55
2023-01-11T04:00:22.780Z,101835.81
2023-01-11T04:02:53.717Z,101833.39
2023-01-11T04:05:22.961Z,101833.45
2023-01-11T04:07:53.934Z,101838.17
2023-01-11T04:10:25.931Z,101831.64
2023-01-11T04:12:56.725Z,101832.80
2023-01-11T04:15:26.077Z,101833.63
2023-01-11T04:17:55.577Z,101834.60
2023-01-11T04:20:29.025Z,101838.59
2023-01-11T04:23:00.655Z,101851.34
2023-01-11T04:25:32.106Z,101843.85
2023-01-11T04:28:02.642Z,101840.83
2023-01-11T04:30:35.549Z,101844.89
2023-01-11T04:33:05.469Z,101846.83
2023-01-11T04:35:34.770Z,101847.22
2023-01-11T04:38:04.876Z,101848.22
2023-01-11T04:40:33.915Z,101855.20
2023-01-11T04:43:03.563Z,101849.23
2023-01-11T04:45:33.885Z,101841.98
2023-01-11T04:48:03.583Z,101837.17
2023-01-11T04:50:33.710Z,101832.72
2023-01-11T04:53:03.255Z,101831.99
2023-01-11T04:55:33.501Z,101832.63
2023-01-11T04:58:03.062Z,101830.04
2023-01-11T05:00:33.258Z,101829.72
2023-01-11T05:03:02.074Z,101827.80
2023-01-11T05:05:31.832Z,101829.08
2023-01-11T05:08:01.078Z,101834.26
2023-01-11T05:10:32.943Z,101836.48
2023-01-11T05:13:02.139Z,101838.45
2023-01-11T05:15:31.576Z,101842.95
2023-01-11T05:18:02.162Z,101838.73
2023-01-11T05:20:32.696Z,101832.58
2023-01-11T05:23:02.233Z,101835.46
2023-01-11T05:25:34.192Z,101839.11
2023-01-11T05:28:08.417Z,101849.64
2023-01-11T05:30:40.897Z,101848.30
2023-01-11T05:33:12.014Z,101855.39
2023-01-11T05:35:41.992Z,101860.64
2023-01-11T05:38:12.542Z,101861.17
2023-01-11T05:40:43.717Z,101853.75
2023-01-11T05:43:15.800Z,101856.59
2023-01-11T05:45:45.239Z,101852.42
2023-01-11T05:48:16.802Z,101848.20
2023-01-11T05:50:52.026Z,101843.31
2023-01-11T05:53:24.699Z,101854.02
2023-01-11T05:55:59.001Z,101866.17
2023-01-11T05:58:30.532Z,101877.59
2023-01-11T06:01:01.340Z,101871.63
2023-01-11T06:03:36.631Z,101872.64
2023-01-11T06:06:06.209Z,101867.17
2023-01-11T06:08:36.620Z,101866.95
2023-01-11T06:11:05.997Z,101869.23
2023-01-11T06:13:39.041Z,101874.61
2023-01-11T06:16:19.897Z,101875.09
2023-01-11T06:18:54.611Z,101873.36
2023-01-11T06:21:25.820Z,101870.95
2023-01-11T06:23:57.308Z,101872.33
2023-01-11T06:26:28.908Z,101873.70
2023-01-11T06:28:58.300Z,101863.20
2023-01-11T06:31:34.409Z,101851.73
2023-01-11T06:34:04.945Z,101855.43
2023-01-11T06:36:35.434Z,101858.03
2023-01-11T06:39:06.517Z,101861.58
2023-01-11T06:41:39.900Z,101853.88
2023-01-11T06:44:09.106Z,101856.09
2023-01-11T06:46:42.230Z,101856.08
2023-01-11T06:49:18.910Z,101858.11
2023-01-11T06:51:52.735Z,101854.75
2023-01-11T06:54:41.264Z,101849.10
2023-01-11T06:57:14.627Z,101844.30
2023-01-11T06:59:45.146Z,101849.73
2023-01-11T07:02:15.278Z,101849.95
2023-01-11T07:04:49.002Z,101850.70
2023-01-11T11:26:21.738Z,101706.80
2023-01-11T11:30:21.761Z,101697.62
2023-01-11T11:38:06.407Z,101707.68
2023-01-11T11:44:51.036Z,101710.20
2023-01-11T11:48:32.339Z,101702.78
2023-01-11T11:52:22.490Z,101700.77
2023-01-11T11:56:22.930Z,101696.98
2023-01-11T12:07:54.920Z,101704.00
2023-01-11T12:15:59.342Z,101702.58
2023-01-11T12:28:45.898Z,101711.78
2023-01-11T12:35:54.401Z,101711.70
2023-01-11T12:43:37.384Z,101710.23
2023-01-11T12:47:58.379Z,101709.55
2023-01-11T12:51:34.289Z,101706.61
2023-01-11T12:55:21.341Z,101710.28
2023-01-11T12:59:10.419Z,101716.80
2023-01-11T13:02:25.683Z,101716.48
2023-01-11T13:05:43.426Z,101721.16
2023-01-11T13:09:19.445Z,101716.64
2023-01-11T13:13:19.407Z,101717.16
2023-01-11T13:16:47.968Z,101708.30
2023-01-11T13:24:06.111Z,101699.36
2023-01-11T13:27:46.521Z,101706.45
2023-01-11T13:31:17.421Z,101700.42
2023-01-11T13:35:17.376Z,101701.52
2023-01-11T13:39:27.421Z,101700.48
2023-01-11T13:43:22.374Z,101701.80
2023-01-11T13:50:42.439Z,101718.91
2023-01-11T13:54:32.468Z,101718.07
2023-01-11T13:58:20.670Z,101715.87
2023-01-11T14:02:18.936Z,101716.23
2023-01-11T14:05:58.677Z,101709.20
2023-01-11T14:09:54.593Z,101704.99
2023-01-11T14:14:29.470Z,101713.11
2023-01-11T14:18:21.201Z,101715.70
2023-01-11T14:22:10.195Z,101719.41
2023-01-11T14:29:57.510Z,101723.62
2023-01-11T14:33:49.479Z,101726.11
2023-01-11T14:37:39.177Z,101727.79
2023-01-11T14:41:30.239Z,101723.10
2023-01-11T14:45:43.285Z,101723.13
2023-01-11T14:49:42.288Z,101722.59
2023-01-11T14:52:56.055Z,101725.27
2023-01-11T14:56:47.831Z,101730.17
2023-01-11T15:00:17.700Z,101725.85
2023-01-11T15:03:47.306Z,101725.63
2023-01-11T15:07:57.411Z,101721.08
2023-01-11T15:11:50.490Z,101726.04
2023-01-11T15:15:27.293Z,101723.40
2023-01-11T15:18:56.581Z,101724.53
2023-01-11T15:23:15.991Z,101731.55
2023-01-11T15:26:21.882Z,101740.52
2023-01-11T15:29:52.901Z,101737.84
2023-01-11T15:33:22.449Z,101733.85
2023-01-11T15:37:02.479Z,101742.80
2023-01-11T15:40:22.754Z,101746.02
2023-01-11T15:44:03.377Z,101746.33
2023-01-11T15:47:24.951Z,101746.41
2023-01-11T15:50:46.523Z,101746.31
2023-01-11T15:53:33.702Z,101754.98
2023-01-11T15:56:41.595Z,101760.61
2023-01-11T16:00:32.669Z,101759.66
2023-01-11T16:04:03.531Z,101757.88
2023-01-11T16:06:55.289Z,101756.23
2023-01-11T16:10:12.398Z,101754.82
2023-01-11T16:13:16.543Z,101760.87
2023-01-11T16:16:19.240Z,101752.70
2023-01-11T16:19:29.112Z,101753.66
2023-01-11T16:22:09.357Z,101757.54
2023-01-11T16:24:49.000Z,101753.48
2023-01-11T16:27:41.505Z,101749.70
2023-01-11T16:30:23.650Z,101753.00
2023-01-11T16:33:56.893Z,101754.70
2023-01-11T16:36:56.343Z,101755.58
2023-01-11T16:39:35.692Z,101757.96
2023-01-11T16:42:07.737Z,101765.51
2023-01-11T16:45:15.634Z,101760.71
2023-01-11T16:48:35.905Z,101763.61
2023-01-11T16:51:18.109Z,101768.22
2023-01-11T16:54:01.240Z,101766.63
2023-01-11T16:56:36.492Z,101760.95
2023-01-11T17:00:01.498Z,101768.40
2023-01-11T17:03:28.367Z,101755.33
2023-01-11T17:06:47.282Z,101759.81
2023-01-11T17:09:39.215Z,101757.80
2023-01-11T17:13:02.567Z,101754.71
2023-01-11T17:16:54.280Z,101748.35
2023-01-11T17:20:27.737Z,101747.98
2023-01-11T17:23:39.975Z,101741.19
2023-01-11T17:27:14.899Z,101738.98
2023-01-11T17:30:11.437Z,101736.15
2023-01-11T17:33:04.535Z,101729.89
2023-01-11T17:35:59.612Z,101722.06
2023-01-11T17:39:15.257Z,101723.42
2023-01-11T17:43:03.678Z,101724.31
2023-01-11T17:47:03.440Z,101722.58
2023-01-11T17:50:47.381Z,101722.48
2023-01-11T17:54:19.073Z,101722.76
2023-01-11T17:57:44.348Z,101717.14
2023-01-11T18:01:19.795Z,101717.53
2023-01-11T18:04:41.959Z,101719.48
2023-01-11T18:08:14.627Z,101715.99
2023-01-11T18:11:17.593Z,101716.42
2023-01-11T18:15:31.993Z,101708.05
2023-01-11T18:19:22.742Z,101702.38
2023-01-11T18:23:17.706Z,101696.36
2023-01-11T18:27:58.596Z,101682.19
2023-01-11T18:31:14.620Z,101677.34
2023-01-11T18:34:03.211Z,101673.34
2023-01-11T18:37:58.733Z,101672.21
2023-01-11T18:41:33.618Z,101669.75
2023-01-11T18:44:57.798Z,101663.23
2023-01-11T18:48:16.438Z,101650.22
2023-01-11T18:51:47.111Z,101650.38
2023-01-11T18:54:58.272Z,101645.59
2023-01-11T18:58:34.673Z,101645.08
2023-01-11T19:06:06.693Z,101636.55
2023-01-11T19:10:21.065Z,101635.84
2023-01-11T19:13:51.061Z,101629.81
2023-01-11T19:16:46.022Z,101627.55
2023-01-11T19:19:32.186Z,101626.48
2023-01-11T19:23:09.940Z,101619.49
2023-01-11T19:27:28.176Z,101611.73
2023-01-11T19:30:57.419Z,101609.08
2023-01-11T19:34:18.818Z,101618.11
2023-01-11T19:39:02.839Z,101621.77
2023-01-11T19:42:19.711Z,101622.27
2023-01-11T19:46:31.874Z,101611.23
2023-01-11T19:53:54.139Z,101602.54
2023-01-11T19:57:46.699Z,101603.23
2023-01-11T20:01:47.183Z,101595.13
2023-01-11T20:05:21.612Z,101604.33
2023-01-11T20:08:39.772Z,101598.83
2023-01-11T20:20:38.583Z,101597.27
2023-01-11T20:23:56.571Z,101584.85
2023-01-11T20:28:01.852Z,101578.04
2023-01-11T20:32:13.450Z,101578.15
2023-01-11T20:39:32.430Z,101580.91
2023-01-11T20:43:05.832Z,101580.30
2023-01-11T20:50:28.719Z,101576.73
2023-01-11T20:53:47.566Z,101574.48
2023-01-11T20:57:22.749Z,101578.99
2023-01-11T21:01:36.635Z,101575.17
2023-01-11T21:05:18.283Z,101576.75
2023-01-11T21:08:48.516Z,101574.92
2023-01-11T21:12:14.979Z,101578.13
2023-01-11T21:15:33.153Z,101571.02
2023-01-11T21:18:54.840Z,101566.22
2023-01-11T21:22:30.761Z,101560.61
2023-01-11T21:26:17.100Z,101557.77
2023-01-11T21:34:13.174Z,101557.98
2023-01-11T21:37:42.797Z,101554.34
2023-01-11T21:41:50.321Z,101551.21
2023-01-11T21:45:25.113Z,101543.67
2023-01-11T21:48:52.267Z,101544.74
2023-01-11T21:52:08.028Z,101541.41
2023-01-11T21:55:27.838Z,101535.38
2023-01-11T21:59:13.462Z,101530.47
2023-01-11T22:02:41.727Z,101527.08
2023-01-11T22:05:34.863Z,101524.58
2023-01-11T22:20:38.761Z,101529.77
2023-01-11T22:24:29.321Z,101529.04
2023-01-11T22:28:15.381Z,101523.71
2023-01-11T22:31:57.116Z,101520.43
2023-01-11T22:35:29.112Z,101520.92
2023-01-11T22:39:14.730Z,101519.08
2023-01-11T22:43:06.071Z,101519.83
2023-01-11T22:46:50.175Z,101521.80
2023-01-11T22:50:37.244Z,101522.42
2023-01-11T22:54:15.928Z,101513.96
2023-01-11T22:57:56.191Z,101510.38
2023-01-11T23:01:47.236Z,101520.96
2023-01-11T23:09:45.948Z,101513.41
2023-01-11T23:17:33.876Z,101516.52
2023-01-11T23:20:57.884Z,101512.09
2023-01-11T23:24:33.752Z,101515.73
2023-01-11T23:27:53.788Z,101515.26
2023-01-11T23:31:14.043Z,101517.34
2023-01-11T23:34:33.682Z,101522.23
2023-01-11T23:38:17.215Z,101519.89
2023-01-11T23:41:33.022Z,101524.32
2023-01-11T23:45:02.403Z,101525.07
2023-01-11T23:48:42.561Z,101522.52
2023-01-11T23:52:16.214Z,101519.77
2023-01-11T23:55:26.278Z,101524.80
2023-01-11T23:58:27.177Z,101521.27
